createdAt,value
2022-08-11T00:00:01.001Z,3.23
2022-08-11T00:02:39.745Z,3.53
2022-08-11T00:05:10.805Z,3.37
2022-08-11T00:07:55.440Z,3.20
2022-08-11T00:10:25.503Z,3.27
2022-08-11T00:13:02.218Z,3.17
2022-08-11T00:15:42.409Z,3.33
2022-08-11T00:18:11.086Z,3.37
2022-08-11T00:20:44.481Z,2.90
2022-08-11T00:23:13.916Z,3.30
2022-08-11T00:25:48.263Z,3.00
2022-08-11T00:28:35.324Z,3.50
2022-08-11T00:31:05.170Z,3.33
2022-08-11T00:33:52.666Z,3.40
2022-08-11T00:36:25.608Z,3.27
2022-08-11T00:38:53.705Z,3.40
2022-08-11T00:41:45.577Z,3.33
2022-08-11T00:44:37.990Z,3.30
2022-08-11T00:47:31.839Z,3.30
2022-08-11T00:50:13.578Z,3.80
2022-08-11T00:53:14.381Z,3.10
2022-08-11T00:55:55.763Z,3.53
2022-08-11T00:58:42.271Z,3.57
2022-08-11T01:01:25.235Z,3.67
2022-08-11T01:04:29.662Z,3.50
2022-08-11T01:08:02.199Z,3.23
2022-08-11T01:10:45.030Z,3.70
2022-08-11T01:13:18.742Z,3.33
2022-08-11T01:16:04.105Z,3.40
2022-08-11T01:19:31.850Z,3.27
2022-08-11T01:22:14.149Z,3.37
2022-08-11T01:25:06.664Z,3.50
2022-08-11T01:27:55.007Z,3.50
2022-08-11T01:30:54.420Z,3.67
2022-08-11T01:33:43.109Z,3.40
2022-08-11T01:36:57.162Z,3.67
2022-08-11T01:39:29.724Z,3.43
2022-08-11T01:42:39.537Z,3.60
2022-08-11T01:45:15.856Z,3.70
2022-08-11T01:48:16.682Z,3.63
2022-08-11T01:50:43.287Z,3.77
2022-08-11T01:53:27.242Z,3.30
2022-08-11T01:56:23.049Z,4.17
2022-08-11T01:59:17.791Z,3.90
2022-08-11T02:01:44.406Z,4.03
2022-08-11T02:04:24.495Z,3.50
2022-08-11T02:07:20.758Z,3.70
2022-08-11T02:09:56.840Z,3.80
2022-08-11T02:12:52.860Z,3.40
2022-08-11T02:15:34.455Z,4.47
2022-08-11T02:18:56.743Z,3.93
2022-08-11T02:22:08.721Z,3.63
2022-08-11T02:24:44.746Z,3.87
2022-08-11T02:27:20.678Z,3.80
2022-08-11T02:29:51.861Z,3.60
2022-08-11T02:32:52.869Z,3.67
2022-08-11T02:35:25.613Z,4.07
2022-08-11T02:38:06.695Z,3.73
2022-08-11T02:41:25.806Z,3.93
2022-08-11T02:44:14.438Z,3.67
2022-08-11T02:47:03.740Z,3.73
2022-08-11T02:50:02.642Z,4.27
2022-08-11T02:53:06.931Z,4.10
2022-08-11T02:55:48.579Z,4.73
2022-08-11T02:59:08.796Z,4.33
2022-08-11T03:01:50.214Z,4.43
2022-08-11T03:04:38.662Z,4.03
2022-08-11T03:07:29.177Z,4.23
2022-08-11T03:10:14.759Z,4.70
2022-08-11T03:13:48.268Z,4.20
2022-08-11T03:16:53.934Z,4.53
2022-08-11T03:19:25.292Z,4.47
2022-08-11T03:22:10.801Z,4.17
2022-08-11T03:24:46.346Z,4.00
2022-08-11T03:27:45.316Z,4.93
2022-08-11T03:30:18.162Z,4.50
2022-08-11T03:33:26.270Z,4.50
2022-08-11T03:36:08.180Z,4.53
2022-08-11T03:39:06.085Z,4.40
2022-08-11T03:42:03.850Z,4.47
2022-08-11T03:44:46.653Z,4.10
2022-08-11T03:47:32.166Z,3.97
2022-08-11T03:50:54.864Z,4.00
2022-08-11T03:53:49.925Z,4.30
2022-08-11T03:56:28.530Z,4.30
2022-08-11T03:58:58.386Z,4.03
2022-08-11T04:01:46.611Z,4.63
2022-08-11T04:04:31.614Z,3.97
2022-08-11T04:07:30.760Z,3.90
2022-08-11T04:10:18.608Z,4.43
2022-08-11T04:12:51.270Z,4.33
2022-08-11T04:15:52.364Z,4.40
2022-08-11T04:18:31.942Z,3.80
2022-08-11T04:21:19.475Z,4.37
2022-08-11T04:24:39.763Z,4.87
2022-08-11T04:27:39.179Z,4.77
2022-08-11T04:30:16.819Z,4.60
2022-08-11T04:32:58.969Z,4.50
2022-08-11T04:35:38.827Z,4.43
2022-08-11T04:38:33.697Z,4.13
2022-08-11T04:41:26.786Z,4.97
2022-08-11T04:44:20.355Z,5.60
2022-08-11T04:47:08.644Z,4.07
2022-08-11T04:50:33.275Z,5.40
2022-08-11T04:54:01.989Z,4.37
2022-08-11T04:56:50.169Z,4.37
2022-08-11T05:00:13.260Z,4.57
2022-08-11T05:03:40.422Z,4.60
2022-08-11T05:06:48.317Z,4.40
2022-08-11T05:09:55.980Z,4.30
2022-08-11T05:12:36.253Z,4.30
2022-08-11T05:15:22.951Z,4.47
2022-08-11T05:18:19.420Z,3.70
2022-08-11T05:21:14.710Z,4.20
2022-08-11T05:24:05.895Z,3.93
2022-08-11T05:27:02.641Z,4.67
2022-08-11T05:30:06.837Z,4.00
2022-08-11T05:33:01.451Z,4.23
2022-08-11T05:36:01.630Z,3.90
2022-08-11T05:38:50.056Z,3.90
2022-08-11T05:41:39.925Z,4.00
2022-08-11T05:44:25.726Z,4.63
2022-08-11T05:47:12.296Z,4.70
2022-08-11T05:49:59.227Z,3.83
2022-08-11T05:52:55.402Z,4.00
2022-08-11T05:56:02.885Z,4.00
2022-08-11T05:58:42.257Z,4.20
2022-08-11T06:01:20.788Z,3.87
2022-08-11T06:04:11.399Z,4.07
2022-08-11T06:06:45.496Z,4.40
2022-08-11T06:09:14.626Z,3.97
2022-08-11T06:11:45.008Z,4.33
2022-08-11T06:14:12.837Z,3.80
2022-08-11T06:16:42.101Z,3.50
2022-08-11T06:19:09.751Z,3.57
2022-08-11T06:21:37.938Z,3.30
2022-08-11T06:24:11.613Z,3.73
2022-08-11T06:26:55.156Z,3.70
2022-08-11T06:29:37.409Z,4.30
2022-08-11T06:32:06.261Z,3.80
2022-08-11T06:34:47.813Z,3.53
2022-08-11T06:37:20.620Z,3.83
2022-08-11T06:40:06.182Z,3.50
2022-08-11T06:42:47.996Z,3.40
2022-08-11T06:45:40.428Z,3.73
2022-08-11T06:48:15.188Z,3.37
2022-08-11T06:51:06.789Z,3.50
2022-08-11T06:53:34.743Z,3.37
2022-08-11T06:56:20.854Z,3.33
2022-08-11T06:59:09.084Z,3.73
2022-08-11T07:01:57.380Z,3.57
2022-08-11T07:05:00.757Z,3.67
2022-08-11T07:08:33.612Z,3.80
2022-08-11T07:11:49.198Z,3.70
2022-08-11T07:14:41.589Z,3.10
2022-08-11T07:17:14.521Z,3.10
2022-08-11T07:20:03.653Z,3.40
2022-08-11T07:22:51.370Z,3.83
2022-08-11T07:25:37.859Z,3.63
2022-08-11T07:28:29.905Z,2.87
2022-08-11T07:31:04.652Z,3.27
2022-08-11T07:34:07.958Z,3.30
2022-08-11T07:36:30.386Z,3.70
2022-08-11T07:38:58.537Z,4.40
2022-08-11T07:41:28.535Z,4.03
2022-08-11T07:44:09.082Z,3.90
2022-08-11T07:47:02.163Z,4.03
2022-08-11T07:49:50.725Z,3.30
2022-08-11T07:52:28.269Z,3.50
2022-08-11T07:54:59.139Z,3.90
2022-08-11T07:58:14.740Z,3.50
2022-08-11T08:01:21.855Z,3.50
2022-08-11T08:04:09.618Z,3.50
2022-08-11T08:06:55.978Z,3.20
2022-08-11T08:09:43.001Z,3.57
2022-08-11T08:12:29.191Z,3.57
2022-08-11T08:15:15.844Z,3.30
2022-08-11T08:18:10.070Z,4.10
2022-08-11T08:20:46.015Z,3.17
2022-08-11T08:23:13.545Z,3.30
2022-08-11T08:25:43.153Z,3.30
2022-08-11T08:28:14.285Z,3.23
2022-08-11T08:30:52.533Z,3.53
2022-08-11T08:33:19.142Z,4.17
2022-08-11T08:35:54.357Z,3.70
2022-08-11T08:38:21.508Z,3.13
2022-08-11T08:40:56.043Z,3.37
2022-08-11T08:43:24.471Z,3.63
2022-08-11T08:45:55.617Z,3.60
2022-08-11T08:48:26.042Z,3.27
2022-08-11T08:51:22.886Z,3.27
2022-08-11T08:53:53.763Z,3.70
2022-08-11T08:56:28.472Z,3.40
2022-08-11T08:58:59.397Z,2.97
2022-08-11T09:01:30.959Z,3.10
2022-08-11T09:04:04.719Z,2.87
2022-08-11T09:06:40.408Z,3.30
2022-08-11T09:09:12.060Z,3.00
2022-08-11T09:11:55.405Z,3.20
2022-08-11T09:14:50.339Z,2.83
2022-08-11T09:17:21.728Z,3.15
2022-08-11T09:19:57.963Z,2.95
2022-08-11T09:22:45.450Z,3.10
2022-08-11T09:25:32.464Z,2.80
2022-08-11T09:28:00.201Z,3.53
2022-08-11T09:30:28.419Z,2.70
2022-08-11T09:32:57.793Z,2.70
2022-08-11T09:35:28.622Z,3.78
2022-08-11T09:38:17.633Z,3.15
2022-08-11T09:40:52.706Z,3.00
2022-08-11T09:43:43.558Z,2.35
2022-08-11T09:46:10.517Z,2.83
2022-08-11T09:48:44.618Z,2.78
2022-08-11T09:51:12.615Z,2.53
2022-08-11T09:53:47.159Z,2.90
2022-08-11T09:56:48.949Z,2.88
2022-08-11T09:59:20.499Z,2.85
2022-08-11T10:01:50.525Z,2.80
2022-08-11T10:04:23.002Z,2.97
2022-08-11T10:07:06.798Z,2.72
2022-08-11T10:09:41.258Z,2.97
2022-08-11T10:12:20.102Z,3.58
2022-08-11T10:15:08.329Z,2.88
2022-08-11T10:17:39.373Z,2.95
2022-08-11T10:20:08.755Z,3.00
2022-08-11T10:22:54.856Z,3.28
2022-08-11T10:25:40.960Z,2.85
2022-08-11T10:28:30.626Z,2.88
2022-08-11T10:31:16.739Z,2.90
2022-08-11T10:34:01.990Z,2.35
2022-08-11T10:36:35.238Z,2.70
2022-08-11T10:39:05.105Z,2.70
2022-08-11T10:42:08.420Z,2.60
2022-08-11T10:44:44.631Z,2.72
2022-08-11T10:47:33.209Z,2.85
2022-08-11T10:50:28.909Z,2.45
2022-08-11T10:53:17.266Z,3.33
2022-08-11T10:58:50.931Z,2.63
2022-08-11T11:01:26.425Z,2.50
2022-08-11T11:03:58.845Z,2.90
2022-08-11T11:06:31.636Z,2.55
2022-08-11T11:09:32.228Z,3.22
2022-08-11T11:12:37.430Z,2.83
2022-08-11T11:15:25.184Z,2.70
2022-08-11T11:18:22.366Z,3.05
2022-08-11T11:20:53.843Z,2.50
2022-08-11T11:23:47.285Z,2.70
2022-08-11T11:26:40.354Z,2.45
2022-08-11T11:29:31.253Z,3.05
2022-08-11T11:32:16.762Z,2.40
2022-08-11T11:35:15.652Z,2.53
2022-08-11T11:38:04.504Z,2.55
2022-08-11T11:40:33.396Z,2.70
2022-08-11T11:43:00.988Z,2.60
2022-08-11T11:45:28.456Z,2.15
2022-08-11T11:47:58.314Z,2.92
2022-08-11T11:50:38.670Z,2.60
2022-08-11T11:53:10.686Z,2.50
2022-08-11T11:55:37.830Z,2.60
2022-08-11T11:58:24.284Z,2.30
2022-08-11T12:01:12.443Z,2.63
2022-08-11T12:03:40.245Z,2.55
2022-08-11T12:06:09.082Z,2.60
2022-08-11T12:08:37.624Z,2.75
2022-08-11T12:11:25.810Z,2.47
2022-08-11T12:13:54.025Z,2.70
2022-08-11T12:16:33.348Z,2.50
2022-08-11T12:19:04.166Z,2.20
2022-08-11T12:21:32.110Z,2.47
2022-08-11T12:24:20.561Z,2.20
2022-08-11T12:27:15.689Z,2.20
2022-08-11T12:29:35.654Z,2.47
2022-08-11T12:32:07.289Z,2.60
2022-08-11T12:34:34.108Z,2.42
2022-08-11T12:37:05.702Z,2.72
2022-08-11T12:40:17.029Z,2.40
2022-08-11T12:43:04.048Z,2.30
2022-08-11T12:45:37.409Z,2.60
2022-08-11T12:48:59.078Z,2.08
2022-08-11T12:52:11.127Z,2.22
2022-08-11T12:55:00.606Z,2.55
2022-08-11T12:57:56.552Z,2.65
2022-08-11T13:00:43.584Z,1.92
2022-08-11T13:03:30.512Z,2.10
2022-08-11T13:06:00.577Z,2.08
2022-08-11T13:08:29.342Z,2.55
2022-08-11T13:11:17.327Z,2.65
2022-08-11T13:13:55.127Z,2.50
2022-08-11T13:16:27.833Z,2.17
2022-08-11T13:18:56.207Z,3.15
2022-08-11T13:21:23.863Z,2.67
2022-08-11T13:24:01.424Z,2.47
2022-08-11T13:26:43.319Z,2.45
2022-08-11T13:29:24.064Z,2.30
2022-08-11T13:31:53.668Z,2.47
2022-08-11T13:34:22.832Z,2.40
2022-08-11T13:36:52.534Z,2.45
2022-08-11T13:39:25.896Z,2.22
2022-08-11T13:41:59.250Z,2.45
2022-08-11T13:44:28.196Z,2.55
2022-08-11T13:47:01.397Z,2.75
2022-08-11T13:49:34.102Z,2.55
2022-08-11T13:52:01.696Z,2.30
2022-08-11T13:54:32.308Z,2.42
2022-08-11T13:57:09.059Z,2.67
2022-08-11T13:59:52.423Z,3.08
2022-08-11T14:02:28.522Z,2.88
2022-08-11T14:04:59.199Z,2.55
2022-08-11T14:07:34.453Z,2.67
2022-08-11T14:10:03.209Z,2.60
2022-08-11T14:12:50.770Z,2.17
2022-08-11T14:15:25.273Z,2.28
2022-08-11T14:18:03.156Z,2.67
2022-08-11T14:20:59.070Z,2.70
2022-08-11T14:23:40.546Z,2.47
2022-08-11T14:26:28.906Z,2.40
2022-08-11T14:29:02.707Z,2.42
2022-08-11T14:31:32.234Z,2.70
2022-08-11T14:34:02.901Z,2.78
2022-08-11T14:36:38.983Z,2.58
2022-08-11T14:39:13.107Z,2.78
2022-08-11T14:42:10.736Z,3.00
2022-08-11T14:45:01.351Z,2.60
2022-08-11T14:47:29.948Z,2.22
2022-08-11T14:50:09.916Z,2.65
2022-08-11T14:52:38.923Z,2.80
2022-08-11T14:55:25.982Z,2.75
2022-08-11T14:57:56.327Z,2.67
2022-08-11T15:00:24.238Z,2.97
2022-08-11T15:03:10.048Z,2.53
2022-08-11T15:05:55.690Z,2.50
2022-08-11T15:08:47.375Z,2.50
2022-08-11T15:11:35.491Z,2.65
2022-08-11T15:14:05.146Z,2.50
2022-08-11T15:16:51.171Z,3.08
2022-08-11T15:19:21.410Z,2.38
2022-08-11T15:22:07.974Z,3.53
2022-08-11T15:24:36.366Z,3.10
2022-08-11T15:27:27.754Z,2.50
2022-08-11T15:30:18.273Z,2.83
2022-08-11T15:33:25.581Z,3.10
2022-08-11T15:36:13.277Z,2.80
2022-08-11T15:38:48.656Z,2.70
2022-08-11T15:41:45.638Z,2.90
2022-08-11T15:45:01.555Z,2.55
2022-08-11T15:47:33.345Z,2.70
2022-08-11T15:50:12.109Z,2.80
2022-08-11T15:52:53.821Z,2.80
2022-08-11T15:55:23.767Z,3.33
2022-08-11T15:58:10.347Z,2.78
2022-08-11T16:01:03.646Z,2.85
2022-08-11T16:04:07.677Z,2.70
2022-08-11T16:06:55.818Z,2.95
2022-08-11T16:09:29.056Z,2.80
2022-08-11T16:12:28.551Z,2.80
2022-08-11T16:15:20.145Z,2.90
2022-08-11T16:17:52.283Z,3.42
2022-08-11T16:20:25.942Z,3.03
2022-08-11T16:23:01.951Z,3.07
2022-08-11T16:27:04.504Z,3.42
2022-08-11T16:28:21.992Z,3.10
2022-08-11T16:30:50.311Z,3.10
2022-08-11T16:33:48.332Z,3.03
2022-08-11T16:36:25.702Z,3.00
2022-08-11T16:38:54.270Z,3.27
2022-08-11T16:41:42.611Z,3.50
2022-08-11T16:44:36.872Z,3.13
2022-08-11T16:47:06.975Z,3.00
2022-08-11T16:49:37.308Z,3.03
2022-08-11T16:52:12.023Z,3.50
2022-08-11T16:54:44.469Z,2.97
2022-08-11T16:57:44.300Z,2.90
2022-08-11T17:00:14.892Z,2.83
2022-08-11T17:03:07.779Z,3.60
2022-08-11T17:05:55.443Z,2.90
2022-08-11T17:08:57.082Z,3.60
2022-08-11T17:11:45.999Z,3.30
2022-08-11T17:14:36.215Z,2.90
2022-08-11T17:17:05.928Z,3.00
2022-08-11T17:20:41.240Z,3.17
2022-08-11T17:22:41.378Z,3.17
2022-08-11T17:25:09.999Z,2.77
2022-08-11T17:27:38.945Z,3.13
2022-08-11T17:30:08.096Z,3.30
2022-08-11T17:33:00.693Z,3.53
2022-08-11T17:35:46.398Z,3.50
2022-08-11T17:38:16.801Z,3.10
2022-08-11T17:41:05.684Z,3.20
2022-08-11T17:43:51.725Z,3.13
2022-08-11T17:46:38.208Z,3.40
2022-08-11T17:49:08.253Z,2.97
2022-08-11T17:51:55.541Z,2.97
2022-08-11T17:54:52.996Z,3.83
2022-08-11T17:57:47.546Z,2.93
2022-08-11T18:00:15.093Z,3.50
2022-08-11T18:03:02.590Z,3.27
2022-08-11T18:05:31.663Z,3.60
2022-08-11T18:08:19.570Z,3.30
2022-08-11T18:11:06.674Z,3.23
2022-08-11T18:13:55.313Z,3.40
2022-08-11T18:16:41.162Z,3.50
2022-08-11T18:19:27.923Z,3.40
2022-08-11T18:22:24.469Z,3.77
2022-08-11T18:25:14.148Z,3.63
2022-08-11T18:28:02.406Z,3.93
2022-08-11T18:31:03.723Z,4.00
2022-08-11T18:34:07.580Z,3.40
2022-08-11T18:37:07.666Z,3.57
2022-08-11T18:39:56.608Z,3.60
2022-08-11T18:42:43.331Z,3.40
2022-08-11T18:45:38.429Z,3.90
2022-08-11T18:48:35.999Z,3.37
2022-08-11T18:51:31.762Z,3.60
2022-08-11T18:54:28.075Z,4.27
2022-08-11T18:57:16.792Z,4.07
2022-08-11T19:00:04.332Z,4.13
2022-08-11T19:02:53.067Z,4.33
2022-08-11T19:06:32.175Z,3.80
2022-08-11T19:08:50.401Z,3.80
2022-08-11T19:11:42.662Z,3.40
2022-08-11T19:14:33.073Z,3.80
2022-08-11T19:17:44.312Z,3.83
2022-08-11T19:20:31.383Z,3.97
2022-08-11T19:23:18.323Z,4.10
2022-08-11T19:26:05.761Z,3.70
2022-08-11T19:28:53.336Z,4.03
2022-08-11T19:31:44.320Z,4.13
2022-08-11T19:34:36.191Z,4.50
2022-08-11T19:37:25.253Z,3.87
2022-08-11T19:40:13.577Z,4.30
2022-08-11T19:43:01.398Z,4.00
2022-08-11T19:45:52.131Z,4.10
2022-08-11T19:48:40.759Z,3.70
2022-08-11T19:51:27.821Z,4.33
2022-08-11T19:54:14.048Z,4.00
2022-08-11T19:57:01.077Z,4.67
2022-08-11T19:59:47.278Z,4.20
2022-08-11T20:02:32.765Z,3.50
2022-08-11T20:05:18.167Z,3.70
2022-08-11T20:08:05.474Z,4.07
2022-08-11T20:10:52.979Z,4.57
2022-08-11T20:13:43.448Z,4.37
2022-08-11T20:16:32.572Z,3.83
2022-08-11T20:19:26.331Z,4.80
2022-08-11T20:22:26.040Z,4.17
2022-08-11T20:25:13.151Z,4.37
2022-08-11T20:28:00.938Z,4.03
2022-08-11T20:30:49.159Z,4.90
2022-08-11T20:33:39.665Z,4.27
2022-08-11T20:36:26.111Z,4.30
2022-08-11T20:39:13.294Z,4.30
2022-08-11T20:42:00.020Z,4.10
2022-08-11T20:44:46.707Z,4.30
2022-08-11T20:47:56.252Z,4.47
2022-08-11T20:50:42.270Z,4.47
2022-08-11T20:53:35.809Z,4.93
2022-08-11T20:56:28.656Z,4.67
2022-08-11T20:59:21.595Z,4.00
2022-08-11T21:02:10.006Z,4.37
2022-08-11T21:04:57.331Z,4.00
2022-08-11T21:07:50.236Z,4.00
2022-08-11T21:10:46.876Z,4.27
2022-08-11T21:13:33.298Z,4.13
2022-08-11T21:16:26.102Z,3.97
2022-08-11T21:19:59.605Z,3.90
2022-08-11T21:22:58.982Z,3.83
2022-08-11T21:25:49.102Z,4.13
2022-08-11T21:28:36.816Z,4.17
2022-08-11T21:31:25.929Z,4.50
2022-08-11T21:34:13.362Z,3.90
2022-08-11T21:37:00.385Z,4.20
2022-08-11T21:39:46.856Z,3.67
2022-08-11T21:42:33.347Z,4.43
2022-08-11T21:45:19.373Z,3.70
2022-08-11T21:48:05.838Z,4.27
2022-08-11T21:50:51.223Z,4.40
2022-08-11T21:53:38.146Z,4.10
2022-08-11T21:56:26.224Z,3.93
2022-08-11T21:59:14.301Z,4.70
2022-08-11T22:01:59.995Z,4.00
2022-08-11T22:04:46.871Z,3.53
2022-08-11T22:07:32.302Z,3.80
2022-08-11T22:10:27.558Z,4.00
2022-08-11T22:13:30.389Z,4.27
2022-08-11T22:16:17.515Z,4.47
2022-08-11T22:19:05.613Z,4.30
2022-08-11T22:22:02.462Z,3.83
2022-08-11T22:24:52.039Z,4.03
2022-08-11T22:27:39.360Z,4.07
2022-08-11T22:30:26.617Z,4.50
2022-08-11T22:33:12.697Z,4.37
2022-08-11T22:36:02.598Z,3.80
2022-08-11T22:38:49.481Z,4.10
2022-08-11T22:41:35.765Z,3.80
2022-08-11T22:44:21.838Z,3.90
2022-08-11T22:47:09.256Z,4.20
2022-08-11T22:49:58.903Z,3.93
2022-08-11T22:52:46.666Z,3.60
2022-08-11T22:55:33.837Z,4.27
2022-08-11T22:58:21.946Z,4.20
2022-08-11T23:01:08.012Z,4.43
2022-08-11T23:03:54.608Z,4.43
2022-08-11T23:06:40.491Z,5.60
2022-08-11T23:09:29.101Z,5.57
2022-08-11T23:12:16.344Z,6.43
2022-08-11T23:15:02.332Z,7.63
2022-08-11T23:17:48.343Z,6.40
2022-08-11T23:20:36.527Z,6.43
2022-08-11T23:23:33.474Z,6.30
2022-08-11T23:26:19.567Z,5.80
2022-08-11T23:29:05.988Z,5.93
2022-08-11T23:31:53.634Z,5.70
2022-08-11T23:35:04.342Z,5.70
2022-08-11T23:37:55.720Z,4.87
2022-08-11T23:40:45.883Z,5.37
2022-08-11T23:43:39.444Z,4.70
2022-08-11T23:46:24.762Z,5.17
2022-08-11T23:49:15.485Z,4.60
2022-08-11T23:52:01.610Z,4.07
2022-08-11T23:54:47.669Z,4.20
2022-08-11T23:57:33.210Z,4.70
